createdAt,value
2018-02-08T00:00:26.036Z,27.56
2018-02-08T00:01:26.009Z,28.04
2018-02-08T00:02:25.992Z,27.73
2018-02-08T00:03:25.972Z,27.64
2018-02-08T00:04:25.951Z,27.83
2018-02-08T00:05:25.933Z,27.46
2018-02-08T00:06:25.914Z,27.75
2018-02-08T00:07:25.895Z,27.46
2018-02-08T00:08:25.877Z,27.56
2018-02-08T00:09:25.857Z,27.07
2018-02-08T00:10:25.840Z,26.96
2018-02-08T00:11:25.823Z,27.84
2018-02-08T00:12:25.799Z,27.84
2018-02-08T00:13:25.781Z,27.66
2018-02-08T00:14:25.762Z,27.66
2018-02-08T00:15:25.492Z,27.94
2018-02-08T00:16:25.728Z,27.66
2018-02-08T00:17:25.706Z,27.56
2018-02-08T00:18:25.686Z,27.36
2018-02-08T00:19:25.667Z,27.35
2018-02-08T00:20:25.396Z,27.45
2018-02-08T00:21:25.629Z,27.26
2018-02-08T00:22:25.359Z,27.07
2018-02-08T00:23:25.339Z,27.54
2018-02-08T00:24:25.570Z,27.64
2018-02-08T00:25:25.552Z,27.56
2018-02-08T00:26:25.532Z,27.64
2018-02-08T00:27:25.513Z,27.66
2018-02-08T00:28:25.494Z,27.66
2018-02-08T00:29:25.227Z,27.73
2018-02-08T00:30:25.456Z,27.75
2018-02-08T00:31:25.436Z,27.17
2018-02-08T00:32:25.418Z,27.45
2018-02-08T00:33:25.150Z,27.54
2018-02-08T00:34:25.386Z,27.66
2018-02-08T00:35:25.111Z,27.84
2018-02-08T00:36:25.346Z,27.75
2018-02-08T00:37:25.072Z,27.06
2018-02-08T00:38:25.303Z,27.56
2018-02-08T00:39:25.284Z,27.73
2018-02-08T00:40:25.269Z,27.75
2018-02-08T00:41:24.996Z,26.97
2018-02-08T00:42:25.227Z,27.54
2018-02-08T00:43:25.210Z,27.46
2018-02-08T00:44:25.190Z,27.45
2018-02-08T00:45:24.919Z,27.17
2018-02-08T00:46:25.158Z,27.66
2018-02-08T00:47:24.882Z,27.84
2018-02-08T00:48:25.117Z,27.75
2018-02-08T00:49:25.092Z,27.73
2018-02-08T00:50:25.074Z,27.73
2018-02-08T00:51:24.805Z,27.66
2018-02-08T00:52:25.039Z,27.66
2018-02-08T00:53:25.018Z,27.54
2018-02-08T00:54:24.748Z,27.64
2018-02-08T00:55:24.979Z,27.45
2018-02-08T00:56:24.709Z,27.54
2018-02-08T00:57:24.690Z,27.15
2018-02-08T00:58:24.928Z,27.64
2018-02-08T00:59:24.909Z,27.73
2018-02-08T01:00:24.885Z,27.66
2018-02-08T01:01:24.868Z,27.66
2018-02-08T01:02:24.596Z,27.94
2018-02-08T01:03:24.826Z,27.64
2018-02-08T01:04:24.556Z,27.66
2018-02-08T01:05:24.790Z,27.54
2018-02-08T01:06:24.519Z,27.07
2018-02-08T01:07:24.750Z,27.46
2018-02-08T01:08:24.482Z,27.06
2018-02-08T01:09:24.713Z,27.06
2018-02-08T01:10:24.442Z,27.66
2018-02-08T01:11:24.674Z,27.66
2018-02-08T01:12:24.405Z,27.73
2018-02-08T01:13:24.637Z,27.75
2018-02-08T01:14:24.616Z,27.93
2018-02-08T01:15:24.348Z,27.64
2018-02-08T01:16:24.583Z,27.66
2018-02-08T01:17:24.309Z,27.56
2018-02-08T01:18:24.292Z,27.46
2018-02-08T01:19:24.523Z,27.54
2018-02-08T01:20:24.253Z,27.25
2018-02-08T01:21:24.483Z,27.73
2018-02-08T01:22:24.469Z,27.64
2018-02-08T01:23:24.448Z,27.66
2018-02-08T01:24:24.428Z,27.64
2018-02-08T01:25:24.411Z,27.73
2018-02-08T01:26:24.388Z,27.56
2018-02-08T01:27:24.375Z,27.66
2018-02-08T01:28:24.350Z,27.73
2018-02-08T01:29:24.081Z,27.75
2018-02-08T01:30:24.310Z,27.73
2018-02-08T01:31:24.293Z,27.07
2018-02-08T01:32:24.028Z,26.96
2018-02-08T01:33:24.260Z,27.75
2018-02-08T01:34:24.235Z,27.66
2018-02-08T01:35:24.219Z,27.64
2018-02-08T01:36:24.197Z,27.73
2018-02-08T01:37:24.178Z,27.64
2018-02-08T01:38:24.159Z,27.64
2018-02-08T01:39:24.139Z,27.73
2018-02-08T01:40:24.178Z,27.83
2018-02-08T01:41:24.102Z,27.73
2018-02-08T01:42:23.833Z,27.64
2018-02-08T01:43:24.063Z,27.64
2018-02-08T01:44:24.045Z,27.54
2018-02-08T01:45:24.025Z,27.64
2018-02-08T01:46:24.006Z,27.64
2018-02-08T01:47:23.986Z,27.83
2018-02-08T01:48:23.970Z,27.64
2018-02-08T01:49:23.949Z,27.84
2018-02-08T01:50:23.929Z,27.66
2018-02-08T01:51:23.910Z,27.75
2018-02-08T01:52:23.890Z,26.96
2018-02-08T01:53:23.872Z,27.64
2018-02-08T01:54:23.904Z,27.56
2018-02-08T01:55:23.836Z,27.75
2018-02-08T01:56:23.914Z,27.75
2018-02-08T01:57:23.796Z,27.64
2018-02-08T01:58:23.775Z,27.64
2018-02-08T01:59:23.766Z,27.64
2018-02-08T02:00:23.488Z,27.75
2018-02-08T02:01:23.719Z,27.64
2018-02-08T02:02:23.700Z,27.54
2018-02-08T02:03:23.680Z,27.84
2018-02-08T02:04:23.664Z,27.15
2018-02-08T02:05:23.642Z,26.96
2018-02-08T02:06:23.623Z,27.64
2018-02-08T02:07:23.354Z,27.64
2018-02-08T02:08:23.334Z,27.64
2018-02-08T02:09:23.566Z,27.73
2018-02-08T02:10:23.547Z,27.83
2018-02-08T02:11:23.528Z,27.73
2018-02-08T02:12:23.507Z,27.73
2018-02-08T02:13:23.496Z,27.25
2018-02-08T02:14:23.470Z,27.54
2018-02-08T02:15:23.451Z,27.75
2018-02-08T02:16:23.434Z,27.64
2018-02-08T02:17:23.414Z,27.64
2018-02-08T02:18:23.398Z,27.73
2018-02-08T02:19:23.374Z,27.73
2018-02-08T02:20:23.104Z,27.73
2018-02-08T02:21:23.085Z,27.64
2018-02-08T02:22:23.317Z,27.64
2018-02-08T02:23:23.296Z,27.83
2018-02-08T02:24:23.277Z,27.64
2018-02-08T02:25:23.260Z,27.64
2018-02-08T02:26:23.242Z,27.83
2018-02-08T02:27:23.221Z,27.45
2018-02-08T02:28:23.203Z,27.45
2018-02-08T02:29:23.183Z,27.06
2018-02-08T02:30:22.913Z,27.54
2018-02-08T02:31:23.147Z,27.83
2018-02-08T02:32:23.127Z,27.64
2018-02-08T02:33:23.109Z,27.64
2018-02-08T02:34:23.087Z,27.83
2018-02-08T02:35:23.067Z,27.45
2018-02-08T02:36:23.048Z,27.83
2018-02-08T02:37:23.033Z,27.54
2018-02-08T02:38:23.015Z,27.64
2018-02-08T02:39:22.995Z,27.73
2018-02-08T02:40:23.030Z,27.64
2018-02-08T02:41:22.953Z,27.73
2018-02-08T02:42:22.687Z,27.73
2018-02-08T02:43:22.921Z,27.64
2018-02-08T02:44:22.646Z,27.93
2018-02-08T02:45:22.884Z,27.73
2018-02-08T02:46:22.867Z,27.64
2018-02-08T02:47:22.843Z,27.35
2018-02-08T02:48:22.821Z,27.35
2018-02-08T02:49:22.802Z,27.45
2018-02-08T02:50:22.790Z,27.35
2018-02-08T02:51:22.813Z,28.13
2018-02-08T02:52:22.745Z,27.25
2018-02-08T02:53:22.725Z,27.73
2018-02-08T02:54:22.705Z,27.73
2018-02-08T02:55:22.687Z,27.64
2018-02-08T02:56:22.669Z,27.73
2018-02-08T02:57:22.652Z,27.64
2018-02-08T02:58:22.629Z,27.45
2018-02-08T02:59:22.359Z,27.35
2018-02-08T03:00:22.590Z,27.45
2018-02-08T03:01:22.597Z,27.25
2018-02-08T03:02:22.302Z,27.45
2018-02-08T03:03:22.534Z,27.35
2018-02-08T03:04:22.512Z,27.45
2018-02-08T03:05:22.494Z,27.93
2018-02-08T03:06:22.475Z,27.64
2018-02-08T03:07:22.454Z,27.73
2018-02-08T03:08:22.436Z,27.64
2018-02-08T03:09:22.417Z,27.83
2018-02-08T03:10:22.399Z,27.73
2018-02-08T03:11:22.378Z,27.93
2018-02-08T03:12:22.363Z,27.25
2018-02-08T03:13:22.340Z,27.35
2018-02-08T03:14:22.321Z,27.35
2018-02-08T03:15:22.052Z,27.35
2018-02-08T03:16:22.033Z,27.35
2018-02-08T03:17:22.264Z,27.25
2018-02-08T03:18:22.244Z,27.64
2018-02-08T03:19:21.976Z,27.83
2018-02-08T03:20:22.212Z,27.64
2018-02-08T03:21:22.191Z,27.64
2018-02-08T03:22:22.169Z,27.73
2018-02-08T03:23:21.899Z,27.25
2018-02-08T03:24:22.134Z,27.35
2018-02-08T03:25:22.114Z,27.93
2018-02-08T03:26:21.843Z,27.35
2018-02-08T03:27:22.072Z,27.64
2018-02-08T03:28:22.053Z,27.93
2018-02-08T03:29:22.037Z,28.13
2018-02-08T03:30:22.018Z,27.45
2018-02-08T03:31:21.999Z,27.64
2018-02-08T03:32:21.977Z,27.73
2018-02-08T03:33:21.958Z,27.73
2018-02-08T03:34:21.939Z,27.73
2018-02-08T03:35:21.670Z,27.35
2018-02-08T03:36:21.900Z,27.25
2018-02-08T03:37:21.880Z,27.73
2018-02-08T03:38:21.861Z,27.45
2018-02-08T03:39:21.842Z,27.35
2018-02-08T03:40:21.822Z,27.93
2018-02-08T03:41:21.804Z,27.45
2018-02-08T03:42:21.535Z,27.35
2018-02-08T03:43:21.766Z,27.54
2018-02-08T03:44:21.746Z,27.64
2018-02-08T03:45:21.727Z,27.73
2018-02-08T03:46:21.458Z,27.73
2018-02-08T03:47:21.688Z,27.64
2018-02-08T03:48:21.671Z,27.25
2018-02-08T03:49:21.650Z,27.93
2018-02-08T03:50:21.634Z,27.25
2018-02-08T03:51:21.613Z,27.64
2018-02-08T03:52:21.593Z,27.83
2018-02-08T03:53:21.324Z,27.35
2018-02-08T03:54:21.555Z,27.73
2018-02-08T03:55:21.535Z,27.93
2018-02-08T03:56:21.517Z,27.35
2018-02-08T03:57:21.496Z,27.64
2018-02-08T03:58:21.477Z,27.83
2018-02-08T03:59:21.458Z,27.45
2018-02-08T04:00:21.443Z,27.73
2018-02-08T04:01:21.421Z,27.45
2018-02-08T04:02:21.401Z,27.35
2018-02-08T04:03:21.381Z,27.54
2018-02-08T04:04:21.361Z,27.45
2018-02-08T04:05:21.348Z,27.93
2018-02-08T04:06:21.074Z,27.35
2018-02-08T04:07:21.304Z,27.93
2018-02-08T04:08:21.286Z,27.25
2018-02-08T04:09:21.267Z,27.73
2018-02-08T04:10:21.250Z,27.73
2018-02-08T04:11:21.228Z,27.45
2018-02-08T04:12:21.209Z,27.83
2018-02-08T04:13:21.188Z,27.45
2018-02-08T04:14:21.170Z,27.35
2018-02-08T04:15:21.154Z,27.45
2018-02-08T04:16:20.882Z,27.25
2018-02-08T04:17:21.115Z,27.64
2018-02-08T04:18:21.095Z,27.64
2018-02-08T04:19:21.075Z,27.35
2018-02-08T04:20:21.056Z,27.54
2018-02-08T04:21:20.789Z,27.64
2018-02-08T04:22:21.017Z,27.64
2018-02-08T04:23:21.000Z,27.45
2018-02-08T04:24:20.979Z,27.45
2018-02-08T04:25:20.959Z,27.25
2018-02-08T04:26:20.942Z,27.35
2018-02-08T04:27:20.921Z,27.45
2018-02-08T04:28:20.651Z,27.35
2018-02-08T04:29:20.632Z,27.64
2018-02-08T04:30:20.863Z,28.13
2018-02-08T04:31:20.844Z,27.93
2018-02-08T04:32:20.827Z,27.25
2018-02-08T04:33:20.806Z,27.83
2018-02-08T04:34:20.537Z,27.83
2018-02-08T04:35:20.769Z,27.73
2018-02-08T04:36:20.498Z,27.45
2018-02-08T04:37:20.732Z,27.35
2018-02-08T04:38:20.459Z,27.64
2018-02-08T04:39:20.440Z,27.93
2018-02-08T04:40:20.672Z,27.25
2018-02-08T04:41:20.652Z,27.93
2018-02-08T04:42:20.637Z,27.73
2018-02-08T04:43:20.613Z,27.73
2018-02-08T04:44:20.594Z,27.83
2018-02-08T04:45:20.575Z,27.73
2018-02-08T04:46:20.558Z,27.64
2018-02-08T04:47:20.536Z,27.83
2018-02-08T04:48:20.521Z,27.73
2018-02-08T04:49:20.498Z,27.45
2018-02-08T04:50:20.479Z,27.93
2018-02-08T04:51:20.460Z,28.13
2018-02-08T04:52:20.443Z,27.73
2018-02-08T04:53:20.421Z,27.25
2018-02-08T04:54:20.408Z,27.64
2018-02-08T04:55:20.384Z,27.73
2018-02-08T04:56:20.365Z,27.83
2018-02-08T04:57:20.094Z,27.25
2018-02-08T04:58:20.325Z,27.35
2018-02-08T04:59:20.308Z,27.73
2018-02-08T05:00:20.290Z,28.32
2018-02-08T05:01:20.271Z,27.64
2018-02-08T05:02:20.248Z,27.73
2018-02-08T05:03:20.236Z,27.64
2018-02-08T05:04:20.209Z,28.03
2018-02-08T05:05:20.194Z,27.73
2018-02-08T05:06:20.199Z,27.35
2018-02-08T05:07:20.153Z,27.83
2018-02-08T05:08:20.136Z,27.64
2018-02-08T05:09:20.113Z,27.45
2018-02-08T05:10:20.095Z,27.45
2018-02-08T05:11:20.075Z,27.73
2018-02-08T05:12:20.058Z,27.93
2018-02-08T05:13:20.037Z,28.22
2018-02-08T05:14:20.019Z,27.93
2018-02-08T05:15:19.998Z,27.93
2018-02-08T05:16:19.979Z,28.13
2018-02-08T05:17:19.962Z,27.73
2018-02-08T05:18:19.949Z,27.73
2018-02-08T05:19:19.926Z,27.35
2018-02-08T05:20:19.658Z,27.26
2018-02-08T05:21:19.884Z,27.45
2018-02-08T05:22:19.866Z,27.45
2018-02-08T05:23:19.845Z,27.64
2018-02-08T05:24:19.827Z,28.22
2018-02-08T05:25:19.808Z,27.93
2018-02-08T05:26:19.832Z,28.22
2018-02-08T05:27:19.769Z,27.93
2018-02-08T05:28:19.749Z,27.93
2018-02-08T05:29:19.730Z,27.93
2018-02-08T05:30:19.712Z,28.03
2018-02-08T05:31:19.691Z,27.25
2018-02-08T05:32:19.671Z,27.25
2018-02-08T05:33:19.652Z,27.45
2018-02-08T05:34:19.633Z,28.13
2018-02-08T05:35:19.614Z,27.83
2018-02-08T05:36:19.594Z,27.93
2018-02-08T05:37:19.574Z,28.03
2018-02-08T05:38:19.556Z,27.73
2018-02-08T05:39:19.539Z,27.83
2018-02-08T05:40:19.269Z,27.73
2018-02-08T05:41:19.499Z,28.03
2018-02-08T05:42:19.479Z,27.73
2018-02-08T05:43:19.462Z,27.45
2018-02-08T05:44:19.442Z,27.45
2018-02-08T05:45:19.424Z,27.64
2018-02-08T05:46:19.405Z,28.22
2018-02-08T05:47:19.387Z,27.73
2018-02-08T05:48:19.365Z,28.03
2018-02-08T05:49:19.099Z,28.03
2018-02-08T05:50:19.332Z,28.03
2018-02-08T05:51:19.090Z,28.22
2018-02-08T05:52:19.325Z,27.93
2018-02-08T05:53:19.269Z,28.22
2018-02-08T05:54:19.252Z,28.22
2018-02-08T05:55:19.232Z,28.22
2018-02-08T05:56:19.212Z,27.64
2018-02-08T05:57:18.945Z,28.03
2018-02-08T05:58:18.924Z,27.93
2018-02-08T05:59:18.904Z,27.83
2018-02-08T06:00:19.196Z,27.93
2018-02-08T06:01:19.122Z,27.93
2018-02-08T06:02:19.097Z,27.93
2018-02-08T06:03:19.078Z,27.73
2018-02-08T06:04:18.809Z,27.93
2018-02-08T06:05:19.040Z,28.03
2018-02-08T06:06:19.019Z,27.93
2018-02-08T06:07:19.020Z,28.03
2018-02-08T06:08:18.982Z,27.83
2018-02-08T06:09:18.964Z,27.83
2018-02-08T06:10:18.949Z,27.93
2018-02-08T06:11:18.927Z,27.73
2018-02-08T06:12:18.965Z,28.03
2018-02-08T06:13:18.886Z,28.13
2018-02-08T06:14:18.870Z,28.22
2018-02-08T06:15:18.850Z,28.22
2018-02-08T06:16:18.837Z,28.03
2018-02-08T06:17:18.813Z,28.22
2018-02-08T06:18:18.791Z,28.13
2018-02-08T06:19:18.528Z,28.13
2018-02-08T06:20:18.504Z,28.03
2018-02-08T06:21:18.751Z,27.93
2018-02-08T06:22:18.713Z,28.13
2018-02-08T06:23:18.696Z,28.22
2018-02-08T06:24:18.691Z,27.93
2018-02-08T06:25:18.716Z,27.83
2018-02-08T06:26:19.028Z,27.93
2018-02-08T06:27:18.668Z,28.22
2018-02-08T06:28:18.597Z,27.93
2018-02-08T06:29:18.578Z,28.22
2018-02-08T06:30:18.575Z,28.22
2018-02-08T06:31:18.541Z,27.93
2018-02-08T06:32:18.519Z,28.03
2018-02-08T06:33:18.251Z,28.03
2018-02-08T06:34:18.482Z,27.64
2018-02-08T06:35:18.468Z,27.54
2018-02-08T06:36:18.444Z,27.54
2018-02-08T06:37:18.175Z,27.36
2018-02-08T06:38:18.406Z,27.35
2018-02-08T06:39:18.391Z,27.36
2018-02-08T06:40:18.369Z,27.94
2018-02-08T06:41:18.352Z,27.56
2018-02-08T06:42:18.329Z,27.26
2018-02-08T06:43:18.308Z,27.26
2018-02-08T06:44:18.290Z,27.36
2018-02-08T06:45:18.272Z,27.66
2018-02-08T06:46:18.251Z,27.73
2018-02-08T06:47:18.234Z,27.75
2018-02-08T06:48:18.277Z,27.75
2018-02-08T06:49:17.944Z,27.66
2018-02-08T06:50:18.469Z,27.66
2018-02-08T06:51:18.178Z,27.66
2018-02-08T06:52:18.613Z,27.75
2018-02-08T06:53:18.121Z,27.84
2018-02-08T06:54:17.848Z,27.66
2018-02-08T06:55:18.078Z,27.66
2018-02-08T06:56:17.810Z,27.75
2018-02-08T06:57:18.074Z,27.66
2018-02-08T06:58:18.047Z,27.94
2018-02-08T06:59:18.002Z,27.17
2018-02-08T07:00:18.086Z,27.75
2018-02-08T07:01:17.964Z,27.66
2018-02-08T07:02:17.946Z,27.56
2018-02-08T07:03:17.941Z,27.84
2018-02-08T07:04:18.620Z,27.75
2018-02-08T07:05:17.887Z,27.75
2018-02-08T07:06:17.872Z,27.66
2018-02-08T07:07:17.860Z,27.66
2018-02-08T07:08:17.831Z,27.66
2018-02-08T07:09:17.811Z,27.66
2018-02-08T07:10:17.793Z,27.17
2018-02-08T07:11:17.773Z,27.36
2018-02-08T07:12:17.755Z,27.36
2018-02-08T07:13:17.741Z,27.36
2018-02-08T07:14:17.715Z,27.36
2018-02-08T07:15:17.448Z,27.46
2018-02-08T07:16:17.681Z,27.46
2018-02-08T07:17:17.425Z,26.97
2018-02-08T07:18:17.639Z,27.36
2018-02-08T07:19:17.623Z,27.07
2018-02-08T07:20:17.618Z,27.46
2018-02-08T07:21:17.591Z,27.37
2018-02-08T07:22:17.313Z,27.08
2018-02-08T07:23:17.294Z,27.26
2018-02-08T07:24:17.531Z,27.28
2018-02-08T07:25:17.507Z,27.17
2018-02-08T07:26:17.871Z,27.26
2018-02-08T07:27:17.469Z,27.28
2018-02-08T07:28:17.450Z,27.26
2018-02-08T07:29:17.435Z,27.18
2018-02-08T07:30:17.445Z,27.08
2018-02-08T07:31:17.425Z,27.47
2018-02-08T07:32:17.382Z,27.26
2018-02-08T07:33:17.357Z,27.28
2018-02-08T07:34:17.089Z,27.08
2018-02-08T07:35:17.326Z,27.37
2018-02-08T07:36:17.298Z,27.37
2018-02-08T07:37:17.277Z,27.28
2018-02-08T07:38:17.008Z,27.28
2018-02-08T07:39:17.053Z,27.18
2018-02-08T07:40:17.253Z,27.28
2018-02-08T07:41:17.202Z,27.37
2018-02-08T07:42:17.182Z,27.18
2018-02-08T07:43:17.171Z,27.37
2018-02-08T07:44:17.163Z,27.18
2018-02-08T07:45:16.874Z,27.37
2018-02-08T07:46:17.107Z,27.18
2018-02-08T07:47:16.844Z,27.28
2018-02-08T07:48:17.068Z,27.37
2018-02-08T07:49:16.799Z,27.57
2018-02-08T07:50:17.034Z,27.37
2018-02-08T07:51:16.780Z,27.37
2018-02-08T07:52:16.999Z,27.28
2018-02-08T07:53:17.014Z,27.28
2018-02-08T07:54:16.705Z,27.47
2018-02-08T07:55:16.937Z,27.28
2018-02-08T07:56:17.305Z,27.57
2018-02-08T07:57:16.929Z,27.37
2018-02-08T07:58:16.878Z,27.37
2018-02-08T07:59:16.610Z,27.37
2018-02-08T08:00:16.868Z,27.67
2018-02-08T08:01:16.823Z,27.37
2018-02-08T08:02:16.803Z,27.28
2018-02-08T08:03:16.782Z,27.37
2018-02-08T08:04:16.763Z,27.28
2018-02-08T08:05:16.752Z,27.28
2018-02-08T08:06:16.727Z,27.37
2018-02-08T08:07:16.457Z,27.28
2018-02-08T08:08:16.693Z,27.37
2018-02-08T08:09:16.419Z,27.28
2018-02-08T08:10:16.650Z,27.28
2018-02-08T08:11:16.631Z,27.57
2018-02-08T08:12:16.613Z,27.37
2018-02-08T08:13:16.595Z,27.28
2018-02-08T08:14:16.575Z,27.37
2018-02-08T08:15:16.558Z,27.37
2018-02-08T08:16:16.538Z,27.28
2018-02-08T08:17:16.575Z,27.28
2018-02-08T08:18:16.498Z,27.37
2018-02-08T08:19:16.721Z,27.37
2018-02-08T08:20:18.474Z,27.28
2018-02-08T08:21:16.522Z,26.89
2018-02-08T08:22:16.918Z,26.89
2018-02-08T08:23:16.444Z,27.37
2018-02-08T08:24:16.448Z,27.37
2018-02-08T08:25:16.438Z,27.18
2018-02-08T08:26:16.835Z,27.47
2018-02-08T08:27:16.375Z,27.37
2018-02-08T08:28:16.352Z,27.37
2018-02-08T08:29:16.334Z,27.37
2018-02-08T08:30:16.536Z,27.37
2018-02-08T08:31:16.002Z,27.37
2018-02-08T08:32:16.235Z,27.37
2018-02-08T08:33:16.243Z,26.89
2018-02-08T08:34:15.945Z,26.6
2018-02-08T08:35:16.176Z,27.37
2018-02-08T08:36:15.906Z,26.89
2018-02-08T08:37:16.166Z,27.28
2018-02-08T08:38:16.142Z,27.28
2018-02-08T08:39:16.121Z,27.57
2018-02-08T08:40:16.138Z,27.28
2018-02-08T08:41:16.063Z,27.37
2018-02-08T08:42:16.048Z,26.89
2018-02-08T08:43:16.024Z,27.28
2018-02-08T08:44:16.012Z,26.98
2018-02-08T08:45:15.987Z,26.79
2018-02-08T08:46:15.978Z,26.98
2018-02-08T08:47:15.950Z,26.79
2018-02-08T08:48:15.952Z,26.79
2018-02-08T08:49:15.944Z,26.79
2018-02-08T08:50:15.703Z,26.89
2018-02-08T08:51:15.920Z,26.98
2018-02-08T08:52:15.624Z,26.79
2018-02-08T08:53:15.838Z,26.98
2018-02-08T08:54:15.570Z,26.79
2018-02-08T08:55:15.838Z,26.79
2018-02-08T08:56:16.137Z,27.08
2018-02-08T08:57:16.133Z,26.89
2018-02-08T08:58:15.774Z,26.98
2018-02-08T08:59:15.728Z,26.6
2018-02-08T09:00:15.525Z,26.7
2018-02-08T09:01:15.965Z,26.89
2018-02-08T09:02:15.675Z,26.98
2018-02-08T09:03:15.662Z,26.89
2018-02-08T09:04:15.633Z,26.79
2018-02-08T09:05:15.357Z,26.98
2018-02-08T09:06:15.606Z,26.79
2018-02-08T09:07:15.570Z,26.79
2018-02-08T09:08:15.882Z,26.79
2018-02-08T09:09:15.318Z,26.89
2018-02-08T09:10:15.534Z,26.89
2018-02-08T09:11:15.536Z,26.89
2018-02-08T09:12:15.534Z,26.79
2018-02-08T09:13:15.537Z,26.7
2018-02-08T09:14:15.445Z,26.98
2018-02-08T09:15:15.466Z,26.98
2018-02-08T09:16:15.399Z,26.89
2018-02-08T09:17:15.131Z,26.98
2018-02-08T09:18:15.878Z,26.79
2018-02-08T09:19:15.891Z,26.79
2018-02-08T09:20:15.413Z,26.89
2018-02-08T09:21:15.299Z,26.89
2018-02-08T09:22:15.110Z,26.98
2018-02-08T09:23:15.303Z,26.98
2018-02-08T09:24:15.278Z,26.89
2018-02-08T09:25:14.978Z,26.89
2018-02-08T09:26:15.210Z,26.98
2018-02-08T09:27:15.445Z,27.08
2018-02-08T09:28:15.180Z,26.98
2018-02-08T09:29:15.161Z,26.79
2018-02-08T09:30:15.134Z,27.08
2018-02-08T09:31:15.137Z,26.7
2018-02-08T09:32:15.098Z,26.79
2018-02-08T09:33:15.080Z,26.89
2018-02-08T09:34:15.066Z,26.89
2018-02-08T09:35:15.044Z,26.98
2018-02-08T09:36:15.030Z,26.7
2018-02-08T09:37:14.752Z,26.7
2018-02-08T09:38:15.077Z,26.79
2018-02-08T09:39:14.965Z,26.79
2018-02-08T09:40:14.699Z,26.79
2018-02-08T09:41:15.210Z,26.89
2018-02-08T09:42:14.905Z,26.79
2018-02-08T09:43:14.892Z,26.79
2018-02-08T09:44:15.118Z,26.79
2018-02-08T09:45:14.898Z,26.7
2018-02-08T09:46:14.831Z,26.79
2018-02-08T09:47:15.025Z,26.7
2018-02-08T09:48:14.805Z,27.18
2018-02-08T09:49:14.772Z,26.98
2018-02-08T09:50:14.756Z,26.6
2018-02-08T09:51:14.738Z,26.79
2018-02-08T09:52:14.725Z,26.7
2018-02-08T09:53:14.708Z,26.89
2018-02-08T09:54:14.700Z,26.79
2018-02-08T09:55:14.898Z,26.79
2018-02-08T09:56:15.123Z,26.7
2018-02-08T09:57:14.667Z,26.7
2018-02-08T09:58:14.649Z,26.98
2018-02-08T09:59:14.884Z,26.79
2018-02-08T10:00:14.913Z,26.79
2018-02-08T10:01:14.794Z,26.7
2018-02-08T10:02:14.545Z,26.98
2018-02-08T10:03:14.531Z,26.98
2018-02-08T10:04:14.554Z,26.79
2018-02-08T10:05:14.503Z,26.89
2018-02-08T10:06:14.511Z,26.7
2018-02-08T17:20:29.523Z,17.65
2018-02-08T17:21:29.290Z,17.65
2018-02-08T17:22:29.484Z,17.65
2018-02-08T17:23:29.475Z,17.55
2018-02-08T17:24:29.432Z,17.94
2018-02-08T17:25:29.158Z,17.16
2018-02-08T17:26:29.140Z,17.26
2018-02-08T17:27:29.443Z,17.16
2018-02-08T17:28:29.369Z,17.18
2018-02-08T17:29:29.084Z,16.69
2018-02-08T17:30:29.059Z,16.01
2018-02-08T17:31:29.041Z,16.02
2018-02-08T17:32:29.297Z,16.02
2018-02-08T17:33:29.256Z,16.11
2018-02-08T17:34:29.242Z,15.72
2018-02-08T17:35:28.980Z,15.34
2018-02-08T17:36:28.949Z,15.25
2018-02-08T17:37:29.186Z,15.25
2018-02-08T17:38:29.163Z,15.06
2018-02-08T17:39:29.147Z,14.96
2018-02-08T17:40:29.131Z,14.77
2018-02-08T17:41:29.109Z,14.67
2018-02-08T17:42:28.841Z,14.09
2018-02-08T17:43:29.074Z,14
2018-02-08T17:44:29.058Z,14.19
2018-02-08T17:45:28.787Z,13.81
2018-02-08T17:46:28.771Z,13.42
2018-02-08T17:47:28.754Z,13.62
2018-02-08T17:48:28.988Z,13.32
2018-02-08T17:49:28.967Z,12.74
2018-02-08T17:50:28.992Z,12.84
2018-02-08T17:51:28.701Z,12.74
2018-02-08T17:52:28.684Z,12.74
2018-02-08T17:53:28.986Z,12.45
2018-02-08T17:54:28.934Z,12.35
2018-02-08T17:55:28.908Z,12.45
2018-02-08T17:56:28.900Z,12.07
2018-02-08T17:57:29.567Z,11.87
2018-02-08T17:58:29.194Z,11.57
2018-02-08T17:59:28.847Z,11.48
2018-02-08T18:00:28.845Z,11.58
2018-02-08T18:01:28.511Z,11.58
2018-02-08T18:02:28.572Z,11.58
2018-02-08T18:03:29.242Z,11.38
2018-02-08T18:04:29.147Z,11.48
2018-02-08T18:05:28.463Z,11.19
2018-02-08T18:06:28.426Z,11.29
2018-02-08T18:07:28.700Z,10.89
2018-02-08T18:08:28.688Z,10.7
2018-02-08T18:09:28.390Z,10.61
2018-02-08T18:10:28.664Z,10.8
2018-02-08T18:11:28.340Z,10.99
2018-02-08T18:12:28.626Z,10.7
2018-02-08T18:13:28.342Z,10.32
2018-02-08T18:14:28.586Z,10.22
2018-02-08T18:15:28.551Z,10.22
2018-02-08T18:16:28.273Z,10.13
2018-02-08T18:17:28.236Z,10.32
2018-02-08T18:18:28.255Z,10.13
2018-02-08T18:19:28.474Z,9.74
2018-02-08T18:20:28.458Z,9.93
2018-02-08T18:21:28.180Z,9.83
2018-02-08T18:22:28.151Z,9.74
2018-02-08T18:23:28.413Z,9.54
2018-02-08T18:24:28.140Z,9.54
2018-02-08T18:25:28.367Z,8.95
2018-02-08T18:26:28.356Z,8.95
2018-02-08T18:27:28.330Z,8.86
2018-02-08T18:28:28.316Z,9.05
2018-02-08T18:29:28.294Z,8.76
2018-02-08T18:30:28.283Z,9.15
2018-02-08T18:31:28.274Z,8.86
2018-02-08T18:32:28.248Z,8.56
2018-02-08T18:33:27.972Z,8.47
2018-02-08T18:34:28.214Z,8.47
2018-02-08T18:35:27.931Z,8.76
2018-02-08T18:36:28.181Z,8.66
2018-02-08T18:37:28.172Z,8.37
2018-02-08T18:38:27.879Z,8.37
2018-02-08T18:39:28.141Z,8.08
2018-02-08T18:40:28.166Z,8.08
2018-02-08T18:41:27.828Z,7.89
2018-02-08T18:42:28.064Z,7.89
2018-02-08T18:43:28.074Z,7.89
2018-02-08T18:44:28.028Z,7.89
2018-02-08T18:45:28.022Z,7.69
2018-02-08T18:46:27.743Z,7.79
2018-02-08T18:47:27.976Z,7.79
2018-02-08T18:48:27.964Z,7.79
2018-02-08T18:49:27.945Z,7.59
2018-02-08T18:50:27.926Z,7.79
2018-02-08T18:51:27.659Z,7.5
2018-02-08T18:52:27.895Z,7.69
2018-02-08T18:53:27.646Z,7.2
2018-02-08T18:54:27.858Z,7.59
2018-02-08T18:55:27.842Z,7.4
2018-02-08T18:56:27.834Z,7.4
2018-02-08T18:57:27.558Z,7.4
2018-02-08T18:58:27.793Z,7.3
2018-02-08T18:59:27.776Z,7.2
2018-02-08T19:00:27.758Z,7.3
2018-02-08T19:01:27.748Z,7.1
2018-02-08T19:02:27.473Z,7.4
2018-02-08T19:03:27.706Z,7.2
2018-02-08T19:04:27.439Z,7.1
2018-02-08T19:05:27.673Z,7.21
2018-02-08T19:06:27.657Z,7.2
2018-02-08T19:07:27.641Z,7.31
2018-02-08T19:08:27.375Z,7.1
2018-02-08T19:09:27.606Z,7.01
2018-02-08T19:10:27.591Z,7.01
2018-02-08T19:11:27.574Z,7.2
2018-02-08T19:12:27.556Z,7.1
2018-02-08T19:13:27.538Z,7.01
2018-02-08T19:14:27.524Z,7.01
2018-02-08T19:15:27.253Z,6.62
2018-02-08T19:16:27.487Z,6.91
2018-02-08T19:17:27.471Z,7.01
2018-02-08T19:18:27.453Z,6.52
2018-02-08T19:19:27.442Z,6.43
2018-02-08T19:20:27.422Z,6.62
2018-02-08T19:21:27.402Z,6.82
2018-02-08T19:22:27.386Z,6.81
2018-02-08T19:23:27.119Z,6.71
2018-02-08T19:24:27.102Z,6.42
2018-02-08T19:25:27.334Z,6.23
2018-02-08T19:26:27.322Z,6.23
2018-02-08T19:27:27.308Z,6.32
2018-02-08T19:28:27.285Z,6.33
2018-02-08T19:29:27.017Z,6.33
2018-02-08T19:30:27.000Z,6.23
2018-02-08T19:31:27.233Z,6.13
2018-02-08T19:32:27.257Z,6.13
2018-02-08T19:33:26.958Z,6.23
2018-02-08T19:34:26.933Z,6.13
2018-02-08T19:35:27.176Z,6.04
2018-02-08T19:36:26.901Z,6.13
2018-02-08T19:37:27.157Z,5.94
2018-02-08T19:38:27.116Z,5.94
2018-02-08T19:39:27.104Z,5.65
2018-02-08T19:40:27.082Z,5.74
2018-02-08T19:41:26.814Z,5.65
2018-02-08T19:42:27.064Z,5.74
2018-02-08T19:43:27.030Z,5.94
2018-02-08T19:44:26.764Z,5.94
2018-02-08T19:45:26.748Z,5.94
2018-02-08T19:46:26.989Z,6.13
2018-02-08T19:47:26.969Z,5.84
2018-02-08T19:48:26.948Z,5.84
2018-02-08T19:49:26.931Z,5.74
2018-02-08T19:50:26.916Z,5.55
2018-02-08T19:51:26.645Z,5.74
2018-02-08T19:52:26.879Z,5.65
2018-02-08T19:53:26.611Z,5.35
2018-02-08T19:54:26.595Z,5.35
2018-02-08T19:55:26.578Z,5.45
2018-02-08T19:56:26.560Z,5.45
2018-02-08T19:57:26.794Z,5.45
2018-02-08T19:58:26.778Z,5.45
2018-02-08T19:59:26.510Z,5.35
2018-02-08T20:00:26.492Z,5.26
2018-02-08T20:01:26.728Z,5.16
2018-02-08T20:02:26.459Z,5.16
2018-02-08T20:03:26.693Z,5.45
2018-02-08T20:04:26.677Z,5.45
2018-02-08T20:05:26.659Z,5.35
2018-02-08T20:06:26.646Z,5.35
2018-02-08T20:07:26.627Z,5.06
2018-02-08T20:08:26.357Z,5.26
2018-02-08T20:09:26.591Z,5.35
2018-02-08T20:10:26.327Z,5.26